Time;durP1;ratioP1;P1;durP2;ratioP2;P2;SDS_P1;SDS_P2;PMS_P1;PMS_P2;Temp;Humidity;BMP_temperature;BMP_pressure;BME280_temperature;BME280_humidity;BME280_pressure;Samples;Min_cycle;Max_cycle;Signal;HPM_P1;HPM_P2
2023/09/04 00:02:02;;;;;;;17.00;12.35;;;15.70;99.90;;;;;;5103198;28;20044;-62
2023/09/04 00:04:28;;;;;;;17.90;13.65;;;15.70;99.90;;;;;;5101911;28;20066;-61
2023/09/04 00:06:53;;;;;;;18.40;14.32;;;15.60;99.90;;;;;;5103332;28;20107;-62
2023/09/04 00:09:19;;;;;;;17.55;13.82;;;15.60;99.90;;;;;;5101864;28;20040;-63
2023/09/04 00:11:45;;;;;;;16.60;12.88;;;15.60;99.90;;;;;;5103242;28;20059;-63
2023/09/04 00:14:11;;;;;;;16.80;12.65;;;15.50;99.90;;;;;;5102197;28;20040;-63
2023/09/04 00:16:37;;;;;;;10.80;7.55;;;15.50;99.90;;;;;;5102442;28;20234;-63
2023/09/04 00:19:03;;;;;;;10.55;7.28;;;15.40;99.90;;;;;;5102485;28;20090;-62
2023/09/04 00:21:29;;;;;;;10.23;7.05;;;15.20;99.90;;;;;;5101888;28;20062;-61
2023/09/04 00:23:54;;;;;;;11.25;7.38;;;15.10;99.90;;;;;;5102993;28;20040;-62
2023/09/04 00:26:20;;;;;;;11.23;8.35;;;15.10;99.90;;;;;;5101303;28;20135;-62
2023/09/04 00:28:46;;;;;;;15.45;9.25;;;15.10;99.90;;;;;;5102681;28;20154;-62
2023/09/04 00:31:11;;;;;;;14.27;10.13;;;15.20;99.90;;;;;;5101776;28;20094;-61
2023/09/04 00:33:37;;;;;;;13.77;10.80;;;15.10;99.90;;;;;;5102383;28;20043;-62
2023/09/04 00:36:03;;;;;;;13.75;10.75;;;15.10;99.90;;;;;;5102458;28;20046;-62
2023/09/04 00:38:29;;;;;;;14.77;11.30;;;15.10;99.90;;;;;;5101563;28;20039;-62
2023/09/04 00:40:55;;;;;;;15.60;12.40;;;15.10;99.90;;;;;;5102131;28;20055;-62
2023/09/04 00:43:20;;;;;;;16.45;12.60;;;15.10;99.90;;;;;;5101100;28;20044;-62
2023/09/04 00:45:47;;;;;;;15.40;11.98;;;15.00;99.90;;;;;;5102383;28;20041;-62
2023/09/04 00:48:13;;;;;;;18.30;14.13;;;15.00;99.90;;;;;;5101120;28;20056;-62
2023/09/04 00:50:42;;;;;;;17.85;13.50;;;14.90;99.90;;;;;;5102094;28;20055;-62
2023/09/04 00:53:09;;;;;;;17.70;13.18;;;14.90;99.90;;;;;;5101805;28;20048;-62
2023/09/04 00:55:37;;;;;;;16.13;12.93;;;14.90;99.90;;;;;;5110543;28;20043;-62
2023/09/04 00:58:03;;;;;;;14.60;11.07;;;14.90;99.90;;;;;;5122416;28;20553;-60
2023/09/04 01:00:29;;;;;;;16.70;12.50;;;14.90;99.90;;;;;;5121249;28;20043;-61
2023/09/04 01:02:59;;;;;;;16.73;13.77;;;14.90;99.90;;;;;;5121330;28;20570;-62
2023/09/04 01:05:28;;;;;;;16.48;13.40;;;14.90;99.90;;;;;;5121486;28;20035;-62
2023/09/04 01:07:54;;;;;;;18.10;13.50;;;14.90;99.90;;;;;;5120463;28;20055;-62
2023/09/04 01:10:20;;;;;;;17.35;13.18;;;14.90;99.90;;;;;;5121731;28;20051;-61
2023/09/04 01:13:07;;;;;;;17.52;13.38;;;14.90;99.90;;;;;;5121168;28;20039;-62
2023/09/04 01:15:33;;;;;;;17.70;13.85;;;14.90;99.90;;;;;;5122431;28;20043;-62
2023/09/04 01:17:59;;;;;;;17.48;13.80;;;14.90;99.90;;;;;;5119754;28;20045;-62
2023/09/04 01:20:27;;;;;;;16.92;14.80;;;14.90;99.90;;;;;;5121670;28;20032;-62
2023/09/04 01:22:55;;;;;;;17.92;14.10;;;14.90;99.90;;;;;;5121781;28;20047;-62
2023/09/04 01:25:29;;;;;;;16.83;14.07;;;14.80;99.90;;;;;;5121144;28;20043;-62
2023/09/04 01:28:29;;;;;;;19.80;14.70;;;14.80;99.90;;;;;;5121712;28;20436;-62
2023/09/04 01:31:06;;;;;;;17.40;14.32;;;14.80;99.90;;;;;;5088620;28;20056;-62
2023/09/04 01:33:40;;;;;;;17.48;13.90;;;14.80;99.90;;;;;;5121673;27;20043;-62
2023/09/04 01:36:10;;;;;;;18.55;12.88;;;14.80;99.90;;;;;;5121755;28;20047;-62
2023/09/04 01:38:37;;;;;;;16.67;13.52;;;14.80;99.90;;;;;;5120679;28;20039;-62
2023/09/04 01:41:06;;;;;;;16.88;12.40;;;14.80;99.90;;;;;;5121754;28;20035;-62
2023/09/04 01:43:32;;;;;;;15.68;12.20;;;14.70;99.90;;;;;;5120068;28;20103;-62
2023/09/04 01:45:58;;;;;;;13.70;10.70;;;14.70;99.90;;;;;;5121970;28;20051;-62
2023/09/04 01:48:23;;;;;;;14.00;10.88;;;14.60;99.90;;;;;;5120796;28;20050;-62
2023/09/04 01:50:49;;;;;;;14.60;11.38;;;14.60;99.90;;;;;;5121031;28;20392;-62
2023/09/04 01:53:16;;;;;;;13.60;10.98;;;14.60;99.90;;;;;;5121041;28;20103;-62
2023/09/04 01:55:42;;;;;;;13.52;10.07;;;14.60;99.90;;;;;;5107991;28;20079;-62
2023/09/04 01:58:08;;;;;;;14.23;11.23;;;14.50;99.90;;;;;;5101225;28;20472;-62
2023/09/04 02:00:33;;;;;;;13.02;10.10;;;14.50;99.90;;;;;;5099543;28;20040;-62
2023/09/04 02:02:59;;;;;;;14.13;11.13;;;14.50;99.90;;;;;;5101268;28;20044;-62
2023/09/04 02:05:25;;;;;;;15.07;10.90;;;14.50;99.90;;;;;;5099313;28;20046;-62
2023/09/04 02:07:50;;;;;;;13.50;10.05;;;14.50;99.90;;;;;;5100359;28;20071;-62
2023/09/04 02:10:16;;;;;;;13.63;11.13;;;14.50;99.90;;;;;;5099954;28;20406;-62
2023/09/04 02:12:41;;;;;;;15.95;9.93;;;14.50;99.90;;;;;;5099579;28;20048;-62
2023/09/04 02:15:07;;;;;;;15.60;11.20;;;14.50;99.90;;;;;;5100664;28;20070;-62
2023/09/04 02:17:33;;;;;;;15.45;11.13;;;14.40;99.90;;;;;;5099439;28;20127;-62
2023/09/04 02:20:00;;;;;;;13.35;10.32;;;14.50;99.90;;;;;;5100695;28;20067;-62
2023/09/04 02:22:26;;;;;;;13.90;9.98;;;14.50;99.90;;;;;;5099594;28;20036;-62
2023/09/04 02:24:52;;;;;;;13.40;10.07;;;14.50;99.90;;;;;;5100586;28;20482;-62
2023/09/04 02:27:18;;;;;;;13.35;10.25;;;14.40;99.90;;;;;;5100104;28;20134;-62
2023/09/04 02:29:43;;;;;;;13.43;9.98;;;14.40;99.90;;;;;;5099349;28;20060;-62
2023/09/04 02:32:09;;;;;;;12.57;10.13;;;14.40;99.90;;;;;;5100380;28;20044;-62
2023/09/04 02:34:35;;;;;;;13.95;10.45;;;14.40;99.90;;;;;;5098969;28;20512;-62
2023/09/04 02:37:00;;;;;;;12.23;9.05;;;14.50;99.90;;;;;;5100663;28;20044;-62
2023/09/04 02:39:26;;;;;;;12.23;8.90;;;14.40;99.90;;;;;;5099141;28;20062;-61
2023/09/04 02:41:52;;;;;;;12.35;9.60;;;14.40;99.90;;;;;;5100293;28;20277;-62
2023/09/04 02:44:17;;;;;;;12.93;10.05;;;14.30;99.90;;;;;;5099712;28;20099;-62
2023/09/04 02:46:43;;;;;;;12.52;9.07;;;14.30;99.90;;;;;;5099296;28;20076;-62
2023/09/04 02:49:11;;;;;;;12.65;9.50;;;14.30;99.90;;;;;;5099806;28;20089;-62
2023/09/04 02:51:37;;;;;;;12.27;8.90;;;14.30;99.90;;;;;;5098891;28;20497;-62
2023/09/04 02:54:03;;;;;;;11.25;8.68;;;14.30;99.90;;;;;;5098649;28;20162;-62
2023/09/04 02:56:29;;;;;;;11.98;8.82;;;14.20;99.90;;;;;;5117506;28;20043;-62
2023/09/04 02:58:54;;;;;;;11.45;8.75;;;14.20;99.90;;;;;;5120434;28;20114;-62
2023/09/04 03:01:20;;;;;;;11.73;8.25;;;14.20;99.90;;;;;;5119617;28;20043;-61
2023/09/04 03:03:46;;;;;;;11.02;7.78;;;14.10;99.90;;;;;;5119676;28;20443;-62
2023/09/04 03:06:12;;;;;;;10.70;8.18;;;14.20;99.90;;;;;;5118671;28;20052;-61
2023/09/04 03:08:38;;;;;;;11.00;7.60;;;14.20;99.90;;;;;;5118920;28;20051;-62
2023/09/04 03:11:10;;;;;;;9.98;7.30;;;14.10;99.90;;;;;;5120139;28;20043;-62
2023/09/04 03:13:39;;;;;;;;;;;14.10;99.90;;;;;;5119562;28;20067;-60
2023/09/04 03:16:08;;;;;;;9.45;7.13;;;14.10;99.90;;;;;;5120053;28;19943;-62
2023/09/04 03:18:34;;;;;;;10.45;7.00;;;14.10;99.90;;;;;;5118643;28;20040;-61
2023/09/04 03:21:01;;;;;;;9.23;7.15;;;14.00;99.90;;;;;;5119206;28;20465;-60
2023/09/04 03:23:27;;;;;;;9.20;7.03;;;14.10;99.90;;;;;;5119871;28;20052;-61
2023/09/04 03:25:52;;;;;;;8.95;6.63;;;14.00;99.90;;;;;;5118572;28;20120;-62
2023/09/04 03:28:18;;;;;;;9.18;6.50;;;14.00;99.90;;;;;;5119947;28;20035;-62
2023/09/04 03:30:44;;;;;;;9.57;6.47;;;14.00;99.90;;;;;;5116856;28;20056;-62
2023/09/04 03:33:09;;;;;;;9.23;6.72;;;13.90;99.90;;;;;;5119860;28;20044;-62
2023/09/04 03:35:35;;;;;;;8.20;5.82;;;14.00;99.90;;;;;;5119106;28;20046;-61
2023/09/04 03:38:01;;;;;;;8.70;6.13;;;13.90;99.90;;;;;;5119069;28;20071;-62
2023/09/04 03:40:29;;;;;;;9.40;6.80;;;13.90;99.90;;;;;;5119757;28;20051;-59
2023/09/04 03:42:55;;;;;;;9.13;6.60;;;13.90;99.90;;;;;;5117253;28;20044;-63
2023/09/04 03:45:21;;;;;;;9.15;6.10;;;13.90;99.90;;;;;;5119938;28;20054;-62
2023/09/04 03:47:48;;;;;;;10.93;7.35;;;13.90;99.90;;;;;;5118409;28;20032;-63
2023/09/04 03:50:14;;;;;;;8.77;6.47;;;13.90;99.90;;;;;;5119598;28;20059;-62
2023/09/04 03:52:41;;;;;;;10.48;6.38;;;13.80;99.90;;;;;;5118521;28;20051;-62
2023/09/04 03:55:08;;;;;;;8.60;6.15;;;13.80;99.90;;;;;;5111949;28;20036;-62
2023/09/04 03:57:36;;;;;;;10.43;6.75;;;13.80;99.90;;;;;;5098830;28;20082;-62
2023/09/04 04:00:14;;;;;;;9.40;6.75;;;13.80;99.90;;;;;;5098034;28;20245;-61
2023/09/04 04:02:41;;;;;;;8.40;6.05;;;13.80;99.90;;;;;;5099034;28;20032;-62
2023/09/04 04:05:08;;;;;;;8.77;6.60;;;13.80;99.90;;;;;;5097820;28;20113;-62
2023/09/04 04:07:34;;;;;;;8.57;5.95;;;13.80;99.90;;;;;;5098965;28;20084;-61
2023/09/04 04:10:01;;;;;;;9.48;6.53;;;13.80;99.90;;;;;;5098734;28;20074;-61
2023/09/04 04:12:27;;;;;;;9.20;6.28;;;13.80;99.90;;;;;;5098166;28;20039;-62
2023/09/04 04:14:54;;;;;;;9.65;7.25;;;13.80;99.90;;;;;;5097293;28;20048;-61
2023/09/04 04:17:20;;;;;;;10.00;6.60;;;13.70;99.90;;;;;;5097765;28;20067;-61
2023/09/04 04:19:45;;;;;;;8.82;6.35;;;13.70;99.90;;;;;;5098953;28;20044;-61
2023/09/04 04:22:11;;;;;;;8.70;6.03;;;13.70;99.90;;;;;;5097979;28;20048;-61
2023/09/04 04:24:37;;;;;;;8.50;6.55;;;13.70;99.90;;;;;;5099194;28;20123;-61
2023/09/04 04:27:03;;;;;;;8.40;5.90;;;13.60;99.90;;;;;;5098293;28;20074;-60
2023/09/04 04:29:28;;;;;;;8.07;5.82;;;13.60;99.90;;;;;;5099587;28;20507;-61
2023/09/04 04:31:54;;;;;;;8.82;6.22;;;13.60;99.90;;;;;;5102593;28;20055;-61
2023/09/04 04:34:20;;;;;;;8.50;6.00;;;13.60;99.90;;;;;;5100937;28;20036;-62
2023/09/04 04:36:46;;;;;;;9.32;5.57;;;13.60;99.90;;;;;;5102824;28;20040;-61
2023/09/04 04:39:11;;;;;;;9.93;5.97;;;13.60;99.90;;;;;;5101328;28;20044;-61
2023/09/04 04:41:37;;;;;;;9.75;5.38;;;13.50;99.90;;;;;;5102570;28;20047;-62
2023/09/04 04:44:03;;;;;;;11.90;6.10;;;13.50;99.90;;;;;;5101771;28;20040;-61
2023/09/04 04:46:29;;;;;;;8.93;6.07;;;13.50;99.90;;;;;;5102048;28;20044;-62
2023/09/04 04:48:55;;;;;;;9.30;5.85;;;13.50;99.90;;;;;;5101701;28;20043;-61
2023/09/04 04:51:21;;;;;;;8.77;5.93;;;13.50;99.90;;;;;;5101047;28;20107;-61
2023/09/04 04:53:47;;;;;;;8.23;5.25;;;13.50;99.90;;;;;;5102416;28;20059;-59
2023/09/04 04:56:13;;;;;;;9.57;5.93;;;13.50;99.90;;;;;;5117332;28;20058;-61
2023/09/04 04:58:39;;;;;;;7.63;4.93;;;13.40;99.90;;;;;;5121506;28;20051;-62
2023/09/04 05:01:06;;;;;;;8.35;4.80;;;13.40;99.90;;;;;;5121588;28;20040;-62
2023/09/04 05:03:32;;;;;;;8.00;5.40;;;13.40;99.90;;;;;;5122223;28;20055;-61
2023/09/04 05:05:58;;;;;;;7.75;5.03;;;13.40;99.90;;;;;;5122121;28;20050;-61
2023/09/04 05:08:23;;;;;;;9.50;5.00;;;13.30;99.90;;;;;;5115254;28;20063;-61
2023/09/04 05:11:05;;;;;;;8.82;4.78;;;13.30;99.90;;;;;;5101965;28;20411;-61
2023/09/04 05:13:31;;;;;;;8.40;5.18;;;13.40;99.90;;;;;;5100956;28;20065;-61
2023/09/04 05:16:03;;;;;;;7.65;4.95;;;13.30;99.90;;;;;;5101918;28;20052;-61
2023/09/04 05:18:30;;;;;;;8.73;5.13;;;13.40;99.90;;;;;;5100872;28;20126;-61
2023/09/04 05:20:55;;;;;;;8.43;5.20;;;13.40;99.90;;;;;;5101117;28;20114;-61
2023/09/04 05:23:22;;;;;;;7.10;4.90;;;13.40;99.90;;;;;;5101471;28;20120;-61
2023/09/04 05:25:52;;;;;;;6.90;4.40;;;13.40;99.90;;;;;;5100328;28;20129;-61
2023/09/04 05:28:18;;;;;;;8.00;4.78;;;13.50;99.90;;;;;;5098261;28;20082;-61
2023/09/04 05:30:44;;;;;;;7.80;5.07;;;13.50;99.90;;;;;;5096384;28;20056;-61
2023/09/04 05:33:09;;;;;;;8.13;5.20;;;13.60;99.90;;;;;;5097498;28;20055;-61
2023/09/04 05:35:35;;;;;;;9.23;6.10;;;13.60;99.90;;;;;;5097056;28;20040;-61
2023/09/04 05:38:01;;;;;;;9.77;4.82;;;13.60;99.90;;;;;;5096828;28;20108;-61
2023/09/04 05:40:27;;;;;;;8.55;5.10;;;13.70;99.90;;;;;;5096328;28;20102;-60
2023/09/04 05:42:53;;;;;;;9.40;6.03;;;13.80;99.90;;;;;;5096336;28;20066;-61
2023/09/04 05:45:19;;;;;;;9.50;5.80;;;13.80;99.90;;;;;;5097300;28;20068;-61
2023/09/04 05:47:49;;;;;;;9.07;5.85;;;13.80;99.90;;;;;;5096056;28;20051;-60
2023/09/04 05:50:15;;;;;;;8.93;5.88;;;14.00;99.90;;;;;;5097571;28;20418;-61
2023/09/04 05:52:41;;;;;;;9.88;6.85;;;14.00;99.90;;;;;;5096758;28;20036;-61
2023/09/04 05:55:07;;;;;;;11.05;6.43;;;14.10;99.90;;;;;;5096327;28;20085;-60
2023/09/04 05:57:34;;;;;;;8.27;6.13;;;14.20;99.90;;;;;;5096812;28;20052;-61
2023/09/04 06:00:00;;;;;;;10.60;7.20;;;14.30;99.90;;;;;;5095895;28;20081;-61
2023/09/04 06:02:27;;;;;;;10.48;6.68;;;14.30;99.90;;;;;;5097132;28;20068;-61
2023/09/04 06:04:53;;;;;;;10.98;7.15;;;14.40;99.90;;;;;;5077407;28;20052;-61
2023/09/04 06:07:18;;;;;;;10.45;7.35;;;14.40;99.90;;;;;;5097039;28;20088;-61
2023/09/04 06:09:44;;;;;;;10.57;7.65;;;14.60;99.90;;;;;;5096057;28;20048;-60
2023/09/04 06:12:11;;;;;;;11.70;7.82;;;14.60;99.90;;;;;;5096024;28;20056;-61
2023/09/04 06:14:38;;;;;;;11.13;7.80;;;14.70;99.90;;;;;;5094880;28;20049;-61
2023/09/04 06:17:04;;;;;;;11.50;7.72;;;14.80;99.90;;;;;;5094940;28;20478;-61
2023/09/04 06:19:30;;;;;;;10.45;7.60;;;14.80;99.90;;;;;;5094681;28;20046;-61
2023/09/04 06:21:59;;;;;;;11.40;7.45;;;14.90;99.90;;;;;;5095251;28;20044;-61
2023/09/04 06:24:25;;;;;;;11.35;7.72;;;14.90;99.90;;;;;;5096553;28;20487;-61
2023/09/04 06:26:51;;;;;;;11.35;7.53;;;15.00;99.90;;;;;;5095203;28;20058;-61
2023/09/04 06:29:18;;;;;;;12.15;7.95;;;15.00;99.90;;;;;;5095461;28;20040;-61
2023/09/04 06:31:44;;;;;;;13.52;8.27;;;15.10;99.90;;;;;;5096309;28;20056;-61
2023/09/04 06:34:10;;;;;;;14.13;8.25;;;15.10;99.90;;;;;;5095332;28;20058;-61
2023/09/04 06:36:36;;;;;;;11.18;8.00;;;15.20;99.90;;;;;;5096198;28;20040;-61
2023/09/04 06:39:03;;;;;;;12.07;7.65;;;15.20;99.90;;;;;;5093514;28;20415;-61
2023/09/04 06:41:29;;;;;;;13.00;7.63;;;15.30;99.90;;;;;;5096082;28;20077;-63
2023/09/04 06:43:55;;;;;;;12.52;8.50;;;15.40;99.90;;;;;;5095479;28;20510;-61
2023/09/04 06:46:21;;;;;;;12.65;8.40;;;15.50;99.90;;;;;;5094437;28;20044;-63
2023/09/04 06:48:47;;;;;;;12.50;7.32;;;15.50;99.90;;;;;;5095421;28;20042;-61
2023/09/04 06:51:13;;;;;;;11.55;7.45;;;15.60;99.90;;;;;;5094757;28;20044;-62
2023/09/04 06:53:38;;;;;;;11.48;8.00;;;15.70;99.90;;;;;;5095978;28;20050;-61
2023/09/04 06:56:04;;;;;;;11.13;7.03;;;15.80;99.90;;;;;;5109460;28;20039;-61
2023/09/04 06:58:30;;;;;;;13.55;7.93;;;15.90;99.90;;;;;;5116629;28;20061;-61
2023/09/04 07:00:56;;;;;;;11.57;7.80;;;15.90;99.90;;;;;;5115171;27;20048;-60
2023/09/04 07:03:22;;;;;;;11.40;7.93;;;16.00;99.90;;;;;;5113793;28;20043;-61
2023/09/04 07:05:49;;;;;;;12.38;8.27;;;16.10;99.90;;;;;;5115335;28;20193;-62
2023/09/04 07:08:15;;;;;;;10.48;7.00;;;16.20;99.90;;;;;;5114255;28;20096;-62
2023/09/04 07:10:40;;;;;;;11.02;7.40;;;16.20;99.90;;;;;;5115374;28;20114;-61
2023/09/04 07:13:06;;;;;;;10.45;7.38;;;16.30;99.90;;;;;;5114447;28;20062;-62
2023/09/04 07:15:32;;;;;;;10.35;7.05;;;16.40;99.90;;;;;;5115416;28;20050;-61
2023/09/04 07:17:59;;;;;;;11.60;6.97;;;16.40;99.90;;;;;;5114849;28;20058;-62
2023/09/04 07:20:27;;;;;;;10.27;7.10;;;16.60;99.90;;;;;;5115728;28;20043;-62
2023/09/04 07:22:52;;;;;;;10.30;7.10;;;16.70;99.90;;;;;;5115857;28;20069;-62
2023/09/04 07:25:18;;;;;;;10.93;6.50;;;16.90;99.90;;;;;;5115197;28;20035;-62
2023/09/04 07:27:44;;;;;;;9.00;6.00;;;16.90;99.90;;;;;;5115633;28;20118;-63
2023/09/04 07:30:11;;;;;;;9.40;6.20;;;17.00;99.90;;;;;;5114398;28;20058;-63
2023/09/04 07:32:36;;;;;;;8.85;6.43;;;17.10;99.90;;;;;;5116028;28;20047;-63
2023/09/04 07:35:03;;;;;;;8.73;5.97;;;17.20;99.90;;;;;;5113259;28;20054;-62
2023/09/04 07:37:29;;;;;;;8.90;5.47;;;17.20;97.90;;;;;;5115857;28;20051;-62
2023/09/04 07:39:55;;;;;;;9.73;6.20;;;17.30;93.90;;;;;;5114986;28;20527;-62
2023/09/04 07:42:25;;;;;;;9.82;5.90;;;17.50;95.40;;;;;;5107149;28;20068;-63
2023/09/04 07:44:50;;;;;;;8.80;5.85;;;17.50;94.30;;;;;;5082417;28;20039;-63
2023/09/04 07:47:16;;;;;;;7.80;5.15;;;17.70;94.60;;;;;;5113498;28;20071;-63
2023/09/04 07:49:42;;;;;;;7.90;5.13;;;17.80;91.10;;;;;;5116127;28;20035;-62
2023/09/04 07:52:08;;;;;;;8.77;5.00;;;17.80;83.80;;;;;;5097164;28;20036;-63
2023/09/04 07:54:34;;;;;;;10.13;5.47;;;17.90;84.30;;;;;;5090741;28;20071;-62
2023/09/04 07:57:02;;;;;;;10.65;5.10;;;18.00;77.90;;;;;;5114254;28;20398;-61
2023/09/04 07:59:28;;;;;;;8.68;5.20;;;18.20;80.40;;;;;;5112676;28;20051;-62
2023/09/04 08:01:54;;;;;;;9.35;5.20;;;18.20;80.60;;;;;;5096957;28;20058;-62
2023/09/04 08:04:20;;;;;;;7.65;5.25;;;18.30;77.90;;;;;;5098660;28;20121;-62
2023/09/04 08:06:45;;;;;;;9.35;5.30;;;18.30;60.80;;;;;;5102786;28;20047;-62
2023/09/04 08:09:11;;;;;;;9.90;5.10;;;18.30;64.00;;;;;;5102200;28;20047;-62
2023/09/04 08:11:37;;;;;;;7.68;4.78;;;18.50;61.90;;;;;;5103192;28;20036;-62
2023/09/04 08:14:03;;;;;;;9.48;5.07;;;18.50;63.50;;;;;;5102793;28;20067;-62
2023/09/04 08:16:29;;;;;;;7.85;4.60;;;18.60;68.50;;;;;;5102267;28;20051;-61
2023/09/04 08:18:54;;;;;;;9.00;4.65;;;18.70;60.50;;;;;;5102779;28;20093;-62
2023/09/04 08:21:20;;;;;;;7.90;4.40;;;18.80;61.00;;;;;;5101538;28;20515;-62
2023/09/04 08:23:46;;;;;;;6.90;3.60;;;18.90;55.80;;;;;;5102517;28;20039;-62
2023/09/04 08:26:14;;;;;;;8.40;4.78;;;18.90;50.40;;;;;;5101891;28;20040;-62
2023/09/04 08:28:40;;;;;;;8.50;3.97;;;19.00;51.50;;;;;;5103128;28;20286;-62
2023/09/04 08:31:07;;;;;;;9.65;3.90;;;19.10;49.60;;;;;;5101854;28;20087;-62
2023/09/04 08:33:34;;;;;;;7.40;4.32;;;19.10;35.90;;;;;;5102071;28;20048;-62
2023/09/04 08:36:00;;;;;;;10.77;5.72;;;19.10;32.90;;;;;;5102557;28;20040;-62
2023/09/04 08:38:26;;;;;;;7.45;3.95;;;19.10;40.40;;;;;;5101800;28;20091;-62
2023/09/04 08:41:00;;;;;;;8.57;4.10;;;19.20;43.00;;;;;;5102945;28;20104;-62
2023/09/04 08:43:30;;;;;;;7.72;4.05;;;19.40;41.60;;;;;;5101480;28;20170;-62
2023/09/04 08:46:00;;;;;;;7.78;4.38;;;19.40;25.30;;;;;;5102823;28;20070;-62
2023/09/04 08:48:29;;;;;;;6.80;3.60;;;19.40;26.30;;;;;;5100563;28;20051;-63
2023/09/04 08:50:56;;;;;;;7.00;3.97;;;19.50;30.10;;;;;;5101555;28;20083;-63
2023/09/04 08:53:22;;;;;;;6.72;3.45;;;19.50;27.70;;;;;;5101111;28;20387;-62
2023/09/04 08:55:49;;;;;;;7.65;4.03;;;19.60;31.80;;;;;;5101201;28;20064;-62
2023/09/04 08:58:16;;;;;;;7.68;3.75;;;19.60;25.90;;;;;;5101724;28;20119;-62
2023/09/04 09:00:43;;;;;;;6.32;3.30;;;19.70;28.20;;;;;;5100985;28;20494;-61
2023/09/04 09:03:09;;;;;;;7.10;3.75;;;19.80;26.80;;;;;;5101986;28;20054;-62
2023/09/04 09:05:36;;;;;;;7.07;4.78;;;19.80;9.20;;;;;;5101546;28;20039;-62
2023/09/04 09:08:03;;;;;;;7.55;3.80;;;19.70;13.10;;;;;;5100926;28;20051;-62
2023/09/04 09:10:29;;;;;;;6.95;3.45;;;19.80;10.60;;;;;;5102073;28;20059;-62
2023/09/04 09:12:55;;;;;;;5.95;3.00;;;19.80;12.40;;;;;;5100944;28;20036;-63
2023/09/04 09:15:20;;;;;;;6.70;3.50;;;19.90;11.70;;;;;;5100880;28;20048;-62
2023/09/04 09:17:49;;;;;;;5.97;3.20;;;19.90;4.10;;;;;;5100251;28;20100;-62
2023/09/04 09:20:30;;;;;;;6.43;2.63;;;20.00;8.30;;;;;;5101705;28;20066;-62
2023/09/04 09:22:56;;;;;;;7.30;2.90;;;20.00;1.00;;;;;;5101313;28;20043;-62
2023/09/04 09:25:22;;;;;;;7.00;2.88;;;20.00;7.70;;;;;;5100579;28;20043;-62
2023/09/04 09:27:49;;;;;;;6.55;2.85;;;20.10;9.30;;;;;;5101403;28;20036;-62
2023/09/04 09:30:15;;;;;;;5.65;2.78;;;20.20;10.90;;;;;;5105214;28;20571;-62
2023/09/04 09:32:42;;;;;;;5.25;2.47;;;20.30;1.00;;;;;;5110080;28;20055;-62
2023/09/04 09:35:09;;;;;;;5.55;2.47;;;20.30;2.50;;;;;;5103616;28;20108;-62
2023/09/04 09:37:35;;;;;;;5.43;2.60;;;20.30;1.00;;;;;;5110540;28;20043;-63
2023/09/04 09:40:04;;;;;;;7.93;2.50;;;20.30;1.00;;;;;;5111447;28;20095;-60
2023/09/04 09:42:31;;;;;;;5.82;2.47;;;20.30;1.00;;;;;;5111224;28;20046;-62
2023/09/04 09:44:57;;;;;;;6.13;2.40;;;20.40;1.00;;;;;;5104312;28;20048;-62
2023/09/04 09:47:22;;;;;;;5.82;3.00;;;20.50;1.00;;;;;;5100162;28;20085;-62
2023/09/04 09:49:48;;;;;;;5.82;3.20;;;20.50;1.00;;;;;;5101434;28;20089;-62
2023/09/04 09:52:15;;;;;;;5.63;2.20;;;20.40;1.00;;;;;;5100340;28;20086;-62
2023/09/04 09:54:41;;;;;;;5.32;2.38;;;20.60;2.30;;;;;;5104801;28;20116;-62
2023/09/04 09:57:10;;;;;;;5.93;2.60;;;20.80;1.00;;;;;;5121019;28;20051;-62
2023/09/04 09:59:38;;;;;;;5.13;2.33;;;20.80;1.00;;;;;;5120131;28;20036;-62
2023/09/04 10:02:05;;;;;;;6.45;2.35;;;20.80;1.00;;;;;;5121428;28;20062;-62
2023/09/04 10:04:32;;;;;;;5.47;2.28;;;20.80;1.00;;;;;;5120416;28;20042;-62
2023/09/04 10:07:02;;;;;;;6.43;2.53;;;20.90;1.00;;;;;;5121686;28;20067;-61
2023/09/04 10:09:32;;;;;;;6.30;2.25;;;21.00;1.00;;;;;;5120388;28;20071;-62
2023/09/04 10:12:07;;;;;;;5.10;2.40;;;21.00;1.00;;;;;;5121059;28;20063;-63
2023/09/04 10:14:39;;;;;;;5.70;2.40;;;21.10;1.00;;;;;;5121260;28;20051;-61
2023/09/04 10:17:08;;;;;;;5.57;2.10;;;21.10;1.00;;;;;;5120226;28;20068;-62
2023/09/04 10:19:38;;;;;;;5.38;2.35;;;21.20;1.00;;;;;;5121080;28;20491;-62
2023/09/04 10:22:08;;;;;;;5.30;2.63;;;21.20;1.00;;;;;;5119993;28;20087;-62
2023/09/04 10:24:44;;;;;;;5.38;2.58;;;21.30;1.00;;;;;;5121163;28;20050;-62
2023/09/04 10:27:11;;;;;;;6.65;3.30;;;21.30;1.00;;;;;;5120170;27;20122;-62
2023/09/04 10:29:54;;;;;;;6.13;2.92;;;21.30;1.00;;;;;;5119673;28;20036;-61
2023/09/04 10:32:20;;;;;;;6.65;3.25;;;21.30;1.00;;;;;;5121144;28;20131;-62
2023/09/04 10:34:46;;;;;;;6.32;2.80;;;21.40;1.00;;;;;;5118356;28;20061;-61
2023/09/04 10:37:12;;;;;;;6.00;3.25;;;21.50;1.00;;;;;;5120216;28;20118;-62
2023/09/04 10:39:41;;;;;;;5.88;2.90;;;21.50;1.00;;;;;;5119997;28;20491;-62
2023/09/04 10:42:08;;;;;;;6.82;2.70;;;21.40;1.00;;;;;;5120395;28;20043;-62
2023/09/04 10:44:51;;;;;;;6.93;3.00;;;21.50;1.00;;;;;;5120880;28;20096;-62
2023/09/04 10:47:18;;;;;;;5.30;2.85;;;21.60;1.00;;;;;;5119611;28;20181;-62
2023/09/04 10:49:45;;;;;;;6.80;3.50;;;21.60;1.00;;;;;;5120738;28;20051;-62
2023/09/04 10:52:12;;;;;;;8.98;3.70;;;21.70;1.00;;;;;;5119919;27;20112;-62
2023/09/04 10:54:39;;;;;;;9.05;3.50;;;21.80;1.00;;;;;;5117319;28;20055;-62
2023/09/04 10:57:07;;;;;;;7.72;3.70;;;21.90;1.00;;;;;;5099248;28;20032;-62
2023/09/04 10:59:55;;;;;;;5.45;3.15;;;21.90;1.00;;;;;;5098739;28;20073;-62
2023/09/04 11:02:30;;;;;;;7.00;4.45;;;22.00;1.00;;;;;;5099459;28;20036;-62
2023/09/04 11:04:56;;;;;;;7.40;3.30;;;21.90;1.00;;;;;;5098804;28;20047;-61
2023/09/04 11:07:22;;;;;;;5.38;2.65;;;22.10;1.00;;;;;;5099685;28;20436;-62
2023/09/04 11:10:29;;;;;;;6.15;3.78;;;22.20;1.00;;;;;;5099515;28;20075;-62
2023/09/04 11:12:55;;;;;;;6.78;2.97;;;22.20;1.00;;;;;;5098520;28;20109;-62
2023/09/04 11:15:22;;;;;;;5.88;3.45;;;22.40;1.00;;;;;;5100055;28;20051;-62
2023/09/04 11:17:51;;;;;;;6.72;3.00;;;22.20;1.00;;;;;;5098857;28;20122;-62
2023/09/04 11:20:22;;;;;;;6.40;3.10;;;22.10;1.00;;;;;;5099485;28;20126;-63
2023/09/04 11:22:48;;;;;;;5.82;2.67;;;22.20;1.00;;;;;;5099367;28;20051;-62
2023/09/04 11:25:15;;;;;;;6.03;2.92;;;22.10;1.00;;;;;;5097676;28;20040;-62
2023/09/04 11:27:43;;;;;;;6.07;2.70;;;22.10;1.00;;;;;;5099522;28;20406;-62
2023/09/04 11:30:09;;;;;;;5.97;2.80;;;22.20;1.00;;;;;;5095567;28;20071;-60
2023/09/04 11:32:39;;;;;;;6.25;3.30;;;22.30;1.00;;;;;;5100124;28;20087;-62
2023/09/04 11:35:09;;;;;;;6.13;2.58;;;22.40;1.00;;;;;;5098420;28;20565;-62
2023/09/04 11:37:35;;;;;;;5.68;2.70;;;22.50;1.00;;;;;;5099298;28;20082;-62
2023/09/04 11:40:01;;;;;;;5.43;2.60;;;22.60;1.00;;;;;;5098385;28;20044;-62
2023/09/04 11:42:27;;;;;;;5.22;2.58;;;22.60;1.00;;;;;;5098539;28;20058;-61
2023/09/04 11:44:54;;;;;;;5.80;2.63;;;22.80;1.00;;;;;;5099572;28;20544;-62
2023/09/04 11:47:22;;;;;;;5.60;2.70;;;22.80;1.00;;;;;;5097466;28;20048;-62
2023/09/04 11:49:48;;;;;;;5.97;2.85;;;22.80;1.00;;;;;;5108532;28;20154;-62
2023/09/04 11:52:19;;;;;;;7.05;2.88;;;22.80;1.00;;;;;;5104445;28;20062;-60
2023/09/04 11:54:45;;;;;;;5.13;2.28;;;22.80;1.00;;;;;;5103057;28;20548;-62
2023/09/04 11:57:12;;;;;;;5.78;2.47;;;22.90;1.00;;;;;;5118513;28;20073;-62
2023/09/04 11:59:39;;;;;;;5.32;2.30;;;23.00;1.00;;;;;;5118558;28;20282;-62
2023/09/04 12:02:07;;;;;;;5.82;2.40;;;23.00;1.00;;;;;;5119708;28;21034;-62
2023/09/04 12:04:34;;;;;;;5.80;2.30;;;23.00;1.00;;;;;;5118384;28;20052;-62
2023/09/04 12:07:01;;;;;;;6.47;2.30;;;23.00;1.00;;;;;;5108396;28;20061;-62
2023/09/04 12:09:28;;;;;;;4.70;2.45;;;23.00;1.00;;;;;;5098663;28;20070;-62
2023/09/04 12:11:54;;;;;;;6.72;3.15;;;22.90;1.00;;;;;;5099071;28;20080;-62
2023/09/04 12:14:20;;;;;;;5.05;2.22;;;22.80;1.00;;;;;;5098823;28;20037;-62
2023/09/04 12:16:46;;;;;;;5.45;2.50;;;22.90;1.00;;;;;;5097835;28;20549;-62
2023/09/04 12:19:12;;;;;;;6.35;2.10;;;22.90;1.00;;;;;;5098781;28;20099;-62
2023/09/04 12:21:39;;;;;;;6.10;2.13;;;23.00;1.00;;;;;;5098077;28;20040;-63
2023/09/04 12:24:14;;;;;;;5.47;2.30;;;23.00;1.00;;;;;;5099599;28;20174;-63
2023/09/04 12:26:41;;;;;;;5.32;2.53;;;23.00;1.00;;;;;;5098273;28;20047;-62
2023/09/04 12:29:11;;;;;;;4.90;2.38;;;23.00;1.00;;;;;;5098462;28;20103;-63
2023/09/04 12:31:37;;;;;;;5.38;2.05;;;23.10;1.00;;;;;;5098560;28;20048;-62
2023/09/04 12:34:04;;;;;;;6.22;2.25;;;23.20;1.00;;;;;;5097669;28;20135;-63
2023/09/04 12:36:34;;;;;;;5.07;1.90;;;23.20;1.00;;;;;;5099004;28;20508;-63
2023/09/04 12:39:00;;;;;;;5.80;2.08;;;23.30;1.00;;;;;;5097779;28;20052;-62
2023/09/04 12:41:26;;;;;;;6.25;2.17;;;23.30;1.00;;;;;;5097823;28;20371;-63
2023/09/04 12:43:52;;;;;;;4.25;1.73;;;23.30;1.00;;;;;;5098199;28;20431;-63